createdAt,value
2019-01-26T00:00:55.184Z,21.62
2019-01-26T00:03:23.747Z,21.68
2019-01-26T00:05:52.338Z,19.60
2019-01-26T00:08:20.907Z,22.67
2019-01-26T00:10:49.499Z,21.77
2019-01-26T00:13:18.134Z,20.15
2019-01-26T00:15:46.820Z,20.75
2019-01-26T00:18:15.398Z,21.12
2019-01-26T00:20:43.991Z,20.27
2019-01-26T00:23:12.576Z,20.27
2019-01-26T00:25:41.159Z,21.33
2019-01-26T00:28:09.727Z,19.07
2019-01-26T00:30:38.303Z,19.57
2019-01-26T00:33:06.894Z,20.80
2019-01-26T00:35:35.471Z,19.48
2019-01-26T00:38:04.534Z,19.20
2019-01-26T00:40:33.110Z,20.15
2019-01-26T00:43:01.702Z,19.48
2019-01-26T00:45:30.272Z,18.52
2019-01-26T00:47:58.866Z,15.40
2019-01-26T00:50:27.430Z,16.90
2019-01-26T00:52:56.031Z,16.50
2019-01-26T00:55:24.668Z,17.42
2019-01-26T00:57:53.260Z,16.05
2019-01-26T01:00:22.666Z,16.45
2019-01-26T01:02:51.330Z,16.37
2019-01-26T01:05:19.969Z,16.20
2019-01-26T01:07:48.702Z,16.75
2019-01-26T01:10:19.845Z,16.55
2019-01-26T01:12:48.445Z,17.20
2019-01-26T01:15:21.651Z,15.90
2019-01-26T01:17:50.310Z,16.35
2019-01-26T01:20:19.619Z,18.10
2019-01-26T01:22:48.285Z,15.48
2019-01-26T01:25:16.852Z,14.38
2019-01-26T01:27:45.447Z,15.10
2019-01-26T01:30:19.622Z,15.85
2019-01-26T01:32:48.282Z,15.80
2019-01-26T01:35:17.226Z,14.38
2019-01-26T01:37:45.891Z,13.32
2019-01-26T01:40:16.098Z,15.53
2019-01-26T01:42:44.762Z,15.70
2019-01-26T01:45:16.370Z,13.35
2019-01-26T01:47:45.075Z,15.88
2019-01-26T01:50:14.245Z,14.40
2019-01-26T01:52:42.888Z,14.87
2019-01-26T01:55:11.559Z,14.70
2019-01-26T01:57:40.150Z,14.05
2019-01-26T02:00:14.419Z,15.95
2019-01-26T02:02:43.011Z,14.05
2019-01-26T02:05:11.579Z,14.90
2019-01-26T02:07:40.222Z,15.75
2019-01-26T02:10:11.687Z,14.85
2019-01-26T02:12:40.280Z,15.05
2019-01-26T02:15:10.491Z,15.60
2019-01-26T02:17:39.082Z,17.15
2019-01-26T02:20:10.754Z,16.50
2019-01-26T02:22:39.362Z,17.50
2019-01-26T02:25:07.999Z,17.98
2019-01-26T02:27:36.590Z,16.60
2019-01-26T02:30:08.244Z,15.83
2019-01-26T02:32:36.830Z,17.75
2019-01-26T02:35:06.947Z,17.40
2019-01-26T02:37:35.544Z,15.60
2019-01-26T02:40:07.351Z,17.80
2019-01-26T02:42:35.946Z,18.50
2019-01-26T02:45:06.554Z,17.35
2019-01-26T02:47:35.143Z,19.23
2019-01-26T02:50:04.755Z,18.65
2019-01-26T02:52:33.358Z,18.55
2019-01-26T02:55:01.916Z,17.95
2019-01-26T02:57:30.507Z,19.27
2019-01-26T02:59:59.081Z,19.92
2019-01-26T03:02:27.672Z,18.82
2019-01-26T03:04:56.239Z,19.12
2019-01-26T03:07:24.830Z,18.32
2019-01-26T03:09:53.403Z,19.42
2019-01-26T03:12:21.997Z,16.90
2019-01-26T03:14:50.559Z,20.40
2019-01-26T03:17:19.155Z,20.32
2019-01-26T03:19:47.729Z,19.48
2019-01-26T03:22:16.326Z,18.35
2019-01-26T03:24:44.891Z,19.07
2019-01-26T03:27:13.489Z,18.00
2019-01-26T03:29:42.060Z,17.15
2019-01-26T03:32:10.657Z,17.60
2019-01-26T03:34:39.239Z,18.65
2019-01-26T03:37:07.827Z,17.37
2019-01-26T03:39:36.401Z,17.67
2019-01-26T03:42:05.045Z,17.10
2019-01-26T03:44:33.643Z,18.37
2019-01-26T03:47:02.219Z,17.32
2019-01-26T03:49:30.810Z,16.25
2019-01-26T03:51:59.384Z,17.52
2019-01-26T03:54:27.972Z,17.55
2019-01-26T03:56:56.611Z,14.78
2019-01-26T03:59:25.207Z,16.48
2019-01-26T04:01:53.846Z,15.28
2019-01-26T04:04:22.440Z,15.93
2019-01-26T04:06:51.013Z,15.23
2019-01-26T04:09:19.608Z,13.25
2019-01-26T04:11:48.179Z,12.95
2019-01-26T04:14:16.770Z,13.30
2019-01-26T04:16:45.345Z,14.47
2019-01-26T04:19:13.931Z,13.78
2019-01-26T04:21:42.507Z,13.25
2019-01-26T04:24:11.099Z,13.88
2019-01-26T04:26:39.667Z,14.15
2019-01-26T04:29:08.255Z,12.70
2019-01-26T04:31:36.827Z,13.85
2019-01-26T04:34:05.435Z,14.05
2019-01-26T04:36:34.063Z,13.90
2019-01-26T04:39:02.733Z,11.28
2019-01-26T04:41:31.298Z,14.30
2019-01-26T04:43:59.892Z,12.82
2019-01-26T04:46:28.467Z,13.90
2019-01-26T04:48:57.051Z,12.65
2019-01-26T04:51:25.694Z,12.15
2019-01-26T04:53:54.287Z,12.82
2019-01-26T04:56:22.856Z,13.72
2019-01-26T04:58:51.446Z,13.75
2019-01-26T05:01:20.014Z,13.18
2019-01-26T05:03:48.601Z,14.13
2019-01-26T05:06:17.181Z,13.68
2019-01-26T05:08:45.777Z,12.75
2019-01-26T05:11:14.351Z,12.05
2019-01-26T05:13:42.945Z,12.82
2019-01-26T05:16:11.511Z,12.18
2019-01-26T05:18:40.111Z,12.65
2019-01-26T05:21:08.674Z,11.53
2019-01-26T05:23:37.262Z,12.90
2019-01-26T05:26:05.839Z,10.53
2019-01-26T05:28:34.436Z,11.25
2019-01-26T05:31:02.994Z,11.00
2019-01-26T05:33:31.591Z,11.57
2019-01-26T05:36:00.162Z,11.12
2019-01-26T05:38:28.785Z,11.38
2019-01-26T05:40:57.323Z,10.90
2019-01-26T05:43:25.915Z,11.48
2019-01-26T05:45:54.478Z,10.58
2019-01-26T05:48:23.115Z,11.40
2019-01-26T05:50:51.638Z,11.75
2019-01-26T05:53:20.235Z,11.20
2019-01-26T05:55:48.807Z,11.40
2019-01-26T05:58:17.449Z,12.40
2019-01-26T06:00:46.010Z,13.72
2019-01-26T06:03:14.589Z,12.07
2019-01-26T06:05:43.179Z,11.25
2019-01-26T06:08:11.750Z,11.25
2019-01-26T06:10:40.338Z,11.18
2019-01-26T06:13:08.915Z,11.10
2019-01-26T06:15:37.507Z,10.80
2019-01-26T06:18:06.088Z,10.65
2019-01-26T06:20:34.674Z,10.38
2019-01-26T06:23:03.238Z,9.35
2019-01-26T06:25:32.003Z,10.08
2019-01-26T06:28:00.571Z,11.97
2019-01-26T06:30:30.127Z,9.90
2019-01-26T06:32:58.700Z,10.65
2019-01-26T06:35:27.297Z,10.80
2019-01-26T06:37:55.851Z,9.75
2019-01-26T06:40:24.516Z,9.53
2019-01-26T06:42:53.083Z,9.68
2019-01-26T06:45:21.919Z,8.18
2019-01-26T06:47:50.482Z,8.53
2019-01-26T06:50:22.446Z,9.60
2019-01-26T06:52:51.083Z,8.75
2019-01-26T06:55:19.743Z,9.55
2019-01-26T06:57:48.306Z,9.48
2019-01-26T07:00:22.863Z,9.15
2019-01-26T07:02:51.435Z,10.13
2019-01-26T07:05:36.526Z,9.40
2019-01-26T07:08:05.532Z,9.98
2019-01-26T07:10:34.391Z,10.55
2019-01-26T07:13:02.962Z,11.15
2019-01-26T07:15:31.559Z,10.63
2019-01-26T07:18:00.127Z,11.43
2019-01-26T07:20:28.729Z,10.72
2019-01-26T07:22:57.287Z,9.08
2019-01-26T07:25:25.879Z,9.00
2019-01-26T07:27:54.443Z,9.68
2019-01-26T07:30:24.680Z,10.00
2019-01-26T07:32:53.254Z,9.90
2019-01-26T07:35:22.187Z,9.10
2019-01-26T07:37:50.750Z,9.95
2019-01-26T07:40:24.251Z,9.90
2019-01-26T07:42:53.386Z,9.33
2019-01-26T07:45:22.115Z,9.03
2019-01-26T07:47:50.687Z,10.72
2019-01-26T07:50:26.779Z,9.15
2019-01-26T07:52:55.617Z,10.03
2019-01-26T07:55:24.194Z,10.23
2019-01-26T07:57:52.804Z,8.18
2019-01-26T08:00:23.950Z,8.80
2019-01-26T08:02:52.517Z,10.90
2019-01-26T08:05:21.171Z,8.85
2019-01-26T08:07:49.730Z,10.03
2019-01-26T08:10:20.855Z,8.43
2019-01-26T08:12:49.947Z,9.43
2019-01-26T08:15:26.734Z,8.80
2019-01-26T08:17:55.366Z,8.40
2019-01-26T08:20:24.486Z,7.92
2019-01-26T08:22:53.123Z,8.88
2019-01-26T08:25:21.769Z,8.15
2019-01-26T08:27:50.407Z,7.87
2019-01-26T08:30:21.499Z,7.92
2019-01-26T08:32:50.532Z,6.75
2019-01-26T08:35:19.284Z,7.35
2019-01-26T08:37:47.846Z,6.78
2019-01-26T08:40:18.570Z,7.85
2019-01-26T08:42:47.134Z,7.10
2019-01-26T08:45:16.255Z,7.50
2019-01-26T08:47:44.959Z,7.10
2019-01-26T08:50:15.680Z,7.30
2019-01-26T08:52:44.479Z,7.85
2019-01-26T08:55:18.279Z,7.90
2019-01-26T08:57:44.378Z,7.20
2019-01-26T09:00:17.564Z,6.35
2019-01-26T09:02:53.996Z,6.95
2019-01-26T09:05:40.387Z,7.05
2019-01-26T09:08:09.011Z,6.45
2019-01-26T09:10:37.595Z,6.05
2019-01-26T09:13:06.154Z,6.67
2019-01-26T09:15:34.734Z,6.10
2019-01-26T09:18:03.296Z,6.62
2019-01-26T09:20:31.885Z,5.95
2019-01-26T09:23:00.523Z,4.47
2019-01-26T09:25:29.116Z,6.05
2019-01-26T09:27:57.854Z,4.75
2019-01-26T09:30:26.433Z,5.33
2019-01-26T09:32:54.994Z,5.20
2019-01-26T09:35:23.578Z,5.17
2019-01-26T09:37:52.136Z,4.72
2019-01-26T09:40:21.849Z,4.90
2019-01-26T09:42:50.474Z,5.62
2019-01-26T09:45:20.003Z,5.05
2019-01-26T09:47:48.746Z,4.50
2019-01-26T09:50:19.438Z,5.33
2019-01-26T09:52:48.053Z,4.80
2019-01-26T09:55:18.275Z,6.75
2019-01-26T09:57:46.907Z,7.45
2019-01-26T10:00:20.544Z,4.90
2019-01-26T10:02:49.102Z,5.45
2019-01-26T10:05:17.820Z,4.40
2019-01-26T10:07:46.451Z,4.50
2019-01-26T10:10:16.371Z,5.03
2019-01-26T10:12:44.929Z,4.70
2019-01-26T10:15:16.051Z,4.65
2019-01-26T10:17:45.904Z,4.12
2019-01-26T10:20:26.246Z,3.90
2019-01-26T10:22:54.883Z,4.12
2019-01-26T10:25:23.531Z,4.00
2019-01-26T10:27:52.092Z,4.40
2019-01-26T10:30:25.247Z,5.37
2019-01-26T10:32:53.803Z,4.83
2019-01-26T10:35:24.006Z,7.03
2019-01-26T10:37:52.597Z,6.50
2019-01-26T10:40:38.835Z,4.92
2019-01-26T10:43:07.562Z,5.30
2019-01-26T10:45:36.217Z,5.05
2019-01-26T10:48:04.847Z,4.58
2019-01-26T10:50:33.434Z,4.10
2019-01-26T10:53:01.996Z,4.25
2019-01-26T10:55:30.558Z,4.55
2019-01-26T10:57:59.142Z,4.80
2019-01-26T11:00:27.770Z,4.33
2019-01-26T11:02:56.359Z,4.10
2019-01-26T11:05:24.914Z,4.37
2019-01-26T11:07:53.510Z,4.58
2019-01-26T11:10:22.238Z,4.40
2019-01-26T11:12:50.823Z,4.60
2019-01-26T11:15:19.383Z,4.72
2019-01-26T11:17:48.034Z,4.80
2019-01-26T11:20:16.662Z,5.80
2019-01-26T11:22:45.319Z,4.50
2019-01-26T11:25:14.418Z,4.30
2019-01-26T11:27:43.071Z,4.15
2019-01-26T11:30:17.563Z,4.20
2019-01-26T11:32:46.215Z,4.05
2019-01-26T11:35:20.502Z,3.33
2019-01-26T11:37:49.082Z,3.85
2019-01-26T11:40:19.346Z,3.72
2019-01-26T11:42:47.927Z,3.70
2019-01-26T11:45:36.864Z,3.92
2019-01-26T11:48:07.081Z,3.30
2019-01-26T11:50:37.275Z,3.58
2019-01-26T11:53:05.855Z,3.80
2019-01-26T11:55:48.216Z,3.30
2019-01-26T11:58:16.803Z,3.00
2019-01-26T12:01:03.307Z,3.00
2019-01-26T12:03:33.531Z,3.62
2019-01-26T12:06:03.743Z,2.75
2019-01-26T12:08:32.325Z,3.00
2019-01-26T12:11:00.887Z,3.12
2019-01-26T12:13:29.492Z,2.95
2019-01-26T12:15:58.055Z,3.00
2019-01-26T12:18:26.647Z,7.55
2019-01-26T12:20:55.210Z,4.65
2019-01-26T12:23:23.862Z,3.17
2019-01-26T12:25:52.425Z,3.70
2019-01-26T12:28:21.006Z,4.42
2019-01-26T12:30:49.568Z,3.50
2019-01-26T12:33:18.146Z,2.90
2019-01-26T12:35:46.880Z,3.35
2019-01-26T12:38:15.531Z,3.55
2019-01-26T12:40:44.169Z,2.65
2019-01-26T12:43:12.745Z,3.08
2019-01-26T12:45:41.308Z,3.05
2019-01-26T12:48:09.892Z,3.52
2019-01-26T12:50:38.450Z,3.40
2019-01-26T12:53:07.030Z,3.20
2019-01-26T12:55:35.594Z,3.72
2019-01-26T12:58:04.324Z,3.27
2019-01-26T13:00:32.875Z,4.33
2019-01-26T13:03:01.460Z,4.45
2019-01-26T13:05:30.093Z,3.60
2019-01-26T13:07:58.674Z,3.60
2019-01-26T13:10:30.311Z,3.15
2019-01-26T13:12:58.994Z,3.00
2019-01-26T13:15:27.595Z,3.22
2019-01-26T13:17:56.174Z,3.20
2019-01-26T13:20:24.805Z,2.40
2019-01-26T13:22:53.390Z,5.75
2019-01-26T13:25:21.950Z,4.83
2019-01-26T13:27:50.538Z,5.35
2019-01-26T13:30:21.607Z,5.12
2019-01-26T13:32:50.428Z,5.05
2019-01-26T13:35:19.638Z,5.10
2019-01-26T13:37:48.542Z,5.47
2019-01-26T13:40:25.458Z,7.20
2019-01-26T13:42:54.046Z,5.35
2019-01-26T13:45:22.676Z,5.35
2019-01-26T13:47:51.254Z,4.70
2019-01-26T13:50:19.995Z,5.22
2019-01-26T13:52:48.581Z,6.28
2019-01-26T13:55:19.388Z,4.50
2019-01-26T13:57:48.038Z,4.20
2019-01-26T14:00:34.379Z,4.20
2019-01-26T14:03:02.958Z,2.75
2019-01-26T14:05:31.587Z,3.30
2019-01-26T14:08:00.166Z,3.60
2019-01-26T14:10:28.726Z,4.15
2019-01-26T14:12:57.315Z,4.67
2019-01-26T14:15:26.045Z,4.80
2019-01-26T14:17:54.695Z,4.08
2019-01-26T14:20:24.899Z,4.50
2019-01-26T14:22:53.546Z,3.33
2019-01-26T14:25:22.251Z,4.00
2019-01-26T14:27:50.978Z,3.62
2019-01-26T14:30:22.649Z,3.77
2019-01-26T14:32:52.644Z,3.37
2019-01-26T14:35:21.387Z,3.72
2019-01-26T14:37:50.107Z,3.87
2019-01-26T14:40:18.803Z,3.50
2019-01-26T14:42:53.969Z,3.27
2019-01-26T14:45:18.399Z,2.80
2019-01-26T14:47:46.950Z,3.60
2019-01-26T14:50:16.975Z,4.70
2019-01-26T14:52:45.874Z,4.87
2019-01-26T14:55:17.663Z,4.70
2019-01-26T14:57:46.223Z,4.65
2019-01-26T15:00:18.114Z,5.67
2019-01-26T15:02:46.743Z,5.78
2019-01-26T15:05:15.390Z,4.92
2019-01-26T15:07:43.954Z,3.75
2019-01-26T15:10:13.179Z,3.58
2019-01-26T15:12:41.735Z,3.67
2019-01-26T15:15:13.322Z,3.92
2019-01-26T15:17:41.878Z,3.98
2019-01-26T15:20:16.034Z,4.30
2019-01-26T15:22:44.598Z,4.70
2019-01-26T15:25:13.419Z,5.05
2019-01-26T15:27:41.979Z,4.70
2019-01-26T15:30:22.519Z,5.30
2019-01-26T15:32:51.152Z,5.60
2019-01-26T15:35:19.736Z,4.50
2019-01-26T15:37:48.295Z,4.50
2019-01-26T15:40:16.880Z,4.20
2019-01-26T15:42:45.503Z,3.45
2019-01-26T15:45:22.766Z,3.47
2019-01-26T15:47:51.331Z,3.90
2019-01-26T15:50:19.976Z,3.55
2019-01-26T15:52:48.538Z,3.35
2019-01-26T15:55:25.331Z,3.58
2019-01-26T15:57:53.890Z,3.22
2019-01-26T16:00:25.207Z,3.55
2019-01-26T16:02:53.864Z,4.40
2019-01-26T16:05:22.782Z,4.03
2019-01-26T16:07:51.338Z,4.35
2019-01-26T16:10:24.119Z,4.05
2019-01-26T16:12:52.689Z,5.42
2019-01-26T16:15:23.706Z,4.72
2019-01-26T16:17:52.506Z,6.78
2019-01-26T16:20:21.931Z,7.00
2019-01-26T16:22:50.628Z,6.62
2019-01-26T16:25:19.348Z,5.87
2019-01-26T16:27:47.906Z,6.83
2019-01-26T16:30:19.035Z,6.08
2019-01-26T16:32:47.927Z,5.33
2019-01-26T16:35:17.655Z,4.35
2019-01-26T16:37:46.360Z,6.05
2019-01-26T16:40:18.010Z,4.55
2019-01-26T16:42:46.562Z,5.42
2019-01-26T16:45:17.959Z,6.78
2019-01-26T16:47:46.520Z,6.55
2019-01-26T16:50:17.942Z,5.90
2019-01-26T16:52:46.575Z,5.40
2019-01-26T16:55:16.204Z,5.67
2019-01-26T16:57:44.770Z,5.60
2019-01-26T17:00:16.682Z,6.10
2019-01-26T17:02:45.234Z,6.17
2019-01-26T17:05:13.887Z,7.47
2019-01-26T17:07:42.453Z,7.08
2019-01-26T17:10:14.115Z,5.30
2019-01-26T17:12:42.678Z,5.70
2019-01-26T17:15:11.797Z,6.60
2019-01-26T17:17:40.427Z,5.85
2019-01-26T17:20:12.083Z,5.83
2019-01-26T17:22:40.718Z,5.47
2019-01-26T17:25:09.435Z,5.60
2019-01-26T17:27:37.990Z,5.70
2019-01-26T17:30:14.723Z,6.10
2019-01-26T17:32:43.282Z,6.12
2019-01-26T17:35:11.934Z,5.80
2019-01-26T17:37:40.490Z,6.60
2019-01-26T17:40:14.790Z,5.83
2019-01-26T17:42:43.357Z,6.28
2019-01-26T17:45:13.579Z,6.55
2019-01-26T17:47:42.134Z,6.20
2019-01-26T17:50:13.942Z,6.10
2019-01-26T17:52:42.502Z,7.00
2019-01-26T17:55:11.825Z,9.35
2019-01-26T17:57:40.859Z,6.47
2019-01-26T18:00:15.567Z,8.55
2019-01-26T18:02:44.126Z,5.92
2019-01-26T18:05:12.778Z,6.70
2019-01-26T18:07:41.346Z,7.42
2019-01-26T18:10:15.730Z,7.10
2019-01-26T18:12:44.292Z,7.33
2019-01-26T18:15:14.815Z,8.23
2019-01-26T18:17:43.380Z,9.20
2019-01-26T18:20:20.711Z,8.13
2019-01-26T18:22:49.342Z,9.60
2019-01-26T18:25:17.998Z,8.68
2019-01-26T18:27:46.554Z,8.08
2019-01-26T18:30:18.280Z,9.73
2019-01-26T18:32:46.842Z,7.90
2019-01-26T18:35:15.562Z,7.33
2019-01-26T18:37:44.199Z,8.80
2019-01-26T18:40:18.494Z,8.00
2019-01-26T18:42:48.198Z,8.30
2019-01-26T18:45:19.015Z,8.68
2019-01-26T18:47:47.652Z,9.13
2019-01-26T18:50:21.399Z,8.60
2019-01-26T18:52:50.199Z,9.90
2019-01-26T18:55:18.926Z,9.95
2019-01-26T18:57:47.483Z,9.85
2019-01-26T19:00:22.079Z,9.98
2019-01-26T19:02:53.819Z,10.78
2019-01-26T19:05:23.443Z,10.65
2019-01-26T19:07:52.014Z,11.55
2019-01-26T19:10:20.667Z,9.43
2019-01-26T19:12:49.231Z,11.48
2019-01-26T19:15:20.726Z,12.23
2019-01-26T19:17:49.358Z,11.05
2019-01-26T19:20:18.027Z,10.63
2019-01-26T19:22:46.586Z,11.12
2019-01-26T19:25:19.562Z,10.10
2019-01-26T19:27:48.258Z,10.95
2019-01-26T19:30:21.431Z,12.65
2019-01-26T19:32:50.066Z,10.78
2019-01-26T19:35:18.795Z,12.43
2019-01-26T19:37:47.354Z,12.40
2019-01-26T19:40:18.734Z,9.60
2019-01-26T19:42:47.417Z,8.88
2019-01-26T19:45:18.335Z,11.33
2019-01-26T19:47:46.903Z,12.47
2019-01-26T19:50:18.099Z,11.63
2019-01-26T19:52:46.836Z,10.55
2019-01-26T19:55:16.878Z,12.28
2019-01-26T19:57:45.442Z,9.70
2019-01-26T20:00:14.483Z,8.33
2019-01-26T20:02:43.071Z,10.50
2019-01-26T20:05:14.742Z,11.22
2019-01-26T20:07:43.405Z,8.98
2019-01-26T20:10:12.504Z,9.88
2019-01-26T20:12:41.086Z,7.90
2019-01-26T20:15:15.446Z,10.40
2019-01-26T20:17:44.738Z,10.20
2019-01-26T20:20:16.620Z,12.85
2019-01-26T20:22:45.270Z,11.08
2019-01-26T20:25:14.170Z,11.43
2019-01-26T20:27:42.763Z,10.75
2019-01-26T20:30:14.436Z,10.85
2019-01-26T20:32:43.168Z,10.05
2019-01-26T20:35:11.858Z,9.45
2019-01-26T20:37:40.437Z,9.75
2019-01-26T20:40:12.406Z,8.83
2019-01-26T20:42:41.003Z,9.60
2019-01-26T20:45:12.766Z,9.68
2019-01-26T20:47:41.348Z,8.95
2019-01-26T20:50:12.251Z,8.65
2019-01-26T20:52:43.790Z,8.38
2019-01-26T20:55:13.293Z,7.70
2019-01-26T20:57:41.943Z,7.97
2019-01-26T21:00:19.140Z,7.33
2019-01-26T21:02:47.726Z,7.78
2019-01-26T21:05:16.361Z,7.00
2019-01-26T21:07:44.944Z,6.92
2019-01-26T21:10:21.423Z,6.80
2019-01-26T21:12:50.443Z,6.15
2019-01-26T21:15:19.344Z,6.80
2019-01-26T21:17:47.995Z,6.03
2019-01-26T21:20:18.486Z,5.47
2019-01-26T21:22:47.074Z,5.62
2019-01-26T21:25:15.781Z,6.87
2019-01-26T21:27:44.426Z,6.78
2019-01-26T21:30:16.118Z,6.80
2019-01-26T21:32:44.704Z,6.40
2019-01-26T21:35:13.272Z,5.08
2019-01-26T21:37:41.847Z,5.20
2019-01-26T21:40:13.482Z,5.75
2019-01-26T21:42:42.064Z,6.22
2019-01-26T21:45:13.063Z,7.00
2019-01-26T21:47:41.719Z,6.75
2019-01-26T21:50:13.292Z,7.37
2019-01-26T21:52:41.874Z,6.47
2019-01-26T21:55:10.685Z,7.70
2019-01-26T21:57:39.262Z,7.83
2019-01-26T22:00:25.950Z,6.97
2019-01-26T22:02:54.551Z,6.60
2019-01-26T22:05:23.275Z,6.90
2019-01-26T22:07:52.035Z,7.55
2019-01-26T22:10:23.035Z,6.92
2019-01-26T22:12:51.759Z,7.75
2019-01-26T22:15:21.460Z,7.12
2019-01-26T22:17:50.182Z,7.58
2019-01-26T22:20:23.671Z,6.17
2019-01-26T22:22:52.254Z,6.83
2019-01-26T22:25:20.953Z,7.55
2019-01-26T22:27:49.673Z,7.70
2019-01-26T22:30:20.843Z,7.28
2019-01-26T22:32:49.567Z,6.62
2019-01-26T22:35:18.204Z,6.85
2019-01-26T22:37:46.914Z,6.03
2019-01-26T22:40:18.817Z,5.00
2019-01-26T22:42:47.403Z,5.83
2019-01-26T22:45:16.097Z,5.40
2019-01-26T22:47:44.742Z,4.85
2019-01-26T22:50:18.587Z,5.78
2019-01-26T22:52:47.243Z,6.03
2019-01-26T22:55:18.042Z,6.30
2019-01-26T22:57:46.900Z,6.12
2019-01-26T23:00:32.187Z,6.33
2019-01-26T23:03:00.766Z,5.25
2019-01-26T23:05:51.679Z,7.25
2019-01-26T23:08:25.994Z,6.35
2019-01-26T23:11:13.857Z,6.53
2019-01-26T23:13:45.872Z,5.55
2019-01-26T23:16:26.023Z,5.30
2019-01-26T23:19:13.945Z,5.95
2019-01-26T23:22:20.123Z,5.62
2019-01-26T23:24:57.631Z,5.60
2019-01-26T23:27:48.471Z,6.03
2019-01-26T23:30:34.462Z,5.85
2019-01-26T23:33:03.048Z,5.55
2019-01-26T23:35:31.621Z,4.62
2019-01-26T23:38:00.191Z,4.60
2019-01-26T23:40:28.819Z,6.35
2019-01-26T23:42:57.387Z,5.37
2019-01-26T23:45:25.963Z,5.15
2019-01-26T23:47:54.528Z,4.70
2019-01-26T23:50:23.106Z,4.90
2019-01-26T23:52:51.676Z,4.50
2019-01-26T23:55:20.253Z,4.42
2019-01-26T23:57:48.815Z,4.90
